sensor_id;sensor_type;location;lat;lon;timestamp;temperature;humidity
1880;DHT22;49285;49.002;8.390;2023-02-26T00:00:38;5.80;94.10
1880;DHT22;49285;49.002;8.390;2023-02-26T00:03:04;5.80;94.30
1880;DHT22;49285;49.002;8.390;2023-02-26T00:05:29;5.80;94.50
1880;DHT22;49285;49.002;8.390;2023-02-26T00:07:55;5.80;94.70
1880;DHT22;49285;49.002;8.390;2023-02-26T00:10:20;5.70;94.80
1880;DHT22;49285;49.002;8.390;2023-02-26T00:12:46;5.70;94.60
1880;DHT22;49285;49.002;8.390;2023-02-26T00:15:12;5.70;94.60
1880;DHT22;49285;49.002;8.390;2023-02-26T00:20:11;5.70;94.70
1880;DHT22;49285;49.002;8.390;2023-02-26T00:22:38;5.70;94.70
1880;DHT22;49285;49.002;8.390;2023-02-26T00:25:05;5.70;94.70
1880;DHT22;49285;49.002;8.390;2023-02-26T00:27:30;5.70;94.80
1880;DHT22;49285;49.002;8.390;2023-02-26T00:29:56;5.60;95.00
1880;DHT22;49285;49.002;8.390;2023-02-26T00:32:22;5.60;95.00
1880;DHT22;49285;49.002;8.390;2023-02-26T00:34:48;5.60;95.10
1880;DHT22;49285;49.002;8.390;2023-02-26T00:42:11;5.60;95.20
1880;DHT22;49285;49.002;8.390;2023-02-26T00:44:37;5.50;95.20
1880;DHT22;49285;49.002;8.390;2023-02-26T00:47:12;5.50;95.20
1880;DHT22;49285;49.002;8.390;2023-02-26T00:55:04;5.40;95.50
1880;DHT22;49285;49.002;8.390;2023-02-26T00:57:29;5.40;95.50
1880;DHT22;49285;49.002;8.390;2023-02-26T00:59:55;5.40;95.50
1880;DHT22;49285;49.002;8.390;2023-02-26T01:02:21;5.30;95.50
1880;DHT22;49285;49.002;8.390;2023-02-26T01:04:46;5.30;95.60
1880;DHT22;49285;49.002;8.390;2023-02-26T01:07:13;5.30;95.80
1880;DHT22;49285;49.002;8.390;2023-02-26T01:09:39;5.20;95.90
1880;DHT22;49285;49.002;8.390;2023-02-26T01:12:10;5.20;95.80
1880;DHT22;49285;49.002;8.390;2023-02-26T01:14:37;5.20;95.70
1880;DHT22;49285;49.002;8.390;2023-02-26T01:22:43;5.10;95.90
1880;DHT22;49285;49.002;8.390;2023-02-26T01:25:13;5.10;96.00
1880;DHT22;49285;49.002;8.390;2023-02-26T01:27:40;5.10;96.00
1880;DHT22;49285;49.002;8.390;2023-02-26T01:30:07;5.10;96.10
1880;DHT22;49285;49.002;8.390;2023-02-26T01:35:28;5.00;96.40
1880;DHT22;49285;49.002;8.390;2023-02-26T01:38:03;5.00;96.60
1880;DHT22;49285;49.002;8.390;2023-02-26T01:43:31;5.00;96.90
1880;DHT22;49285;49.002;8.390;2023-02-26T01:48:48;5.00;96.90
1880;DHT22;49285;49.002;8.390;2023-02-26T01:51:13;4.90;96.80
1880;DHT22;49285;49.002;8.390;2023-02-26T01:53:39;5.00;97.00
1880;DHT22;49285;49.002;8.390;2023-02-26T01:56:10;4.90;97.00
1880;DHT22;49285;49.002;8.390;2023-02-26T01:58:37;4.90;97.10
1880;DHT22;49285;49.002;8.390;2023-02-26T02:01:04;4.90;97.10
1880;DHT22;49285;49.002;8.390;2023-02-26T02:03:34;4.90;97.20
1880;DHT22;49285;49.002;8.390;2023-02-26T02:06:05;4.80;97.20
1880;DHT22;49285;49.002;8.390;2023-02-26T02:08:33;4.80;97.20
1880;DHT22;49285;49.002;8.390;2023-02-26T02:11:01;4.80;97.30
1880;DHT22;49285;49.002;8.390;2023-02-26T02:13:34;4.80;97.30
1880;DHT22;49285;49.002;8.390;2023-02-26T02:16:15;4.80;97.40
1880;DHT22;49285;49.002;8.390;2023-02-26T02:18:52;4.80;97.30
1880;DHT22;49285;49.002;8.390;2023-02-26T02:27:34;4.70;97.50
1880;DHT22;49285;49.002;8.390;2023-02-26T02:30:49;4.70;97.60
1880;DHT22;49285;49.002;8.390;2023-02-26T02:33:18;4.70;97.60
1880;DHT22;49285;49.002;8.390;2023-02-26T02:35:54;4.70;97.60
1880;DHT22;49285;49.002;8.390;2023-02-26T02:38:29;4.70;97.60
1880;DHT22;49285;49.002;8.390;2023-02-26T02:41:23;4.70;97.60
1880;DHT22;49285;49.002;8.390;2023-02-26T02:43:48;4.60;97.70
1880;DHT22;49285;49.002;8.390;2023-02-26T02:46:26;4.60;97.80
1880;DHT22;49285;49.002;8.390;2023-02-26T02:49:02;4.60;97.90
1880;DHT22;49285;49.002;8.390;2023-02-26T02:51:46;4.60;97.90
1880;DHT22;49285;49.002;8.390;2023-02-26T02:54:22;4.60;97.90
1880;DHT22;49285;49.002;8.390;2023-02-26T02:56:57;4.60;98.00
1880;DHT22;49285;49.002;8.390;2023-02-26T02:59:32;4.60;98.00
1880;DHT22;49285;49.002;8.390;2023-02-26T03:02:10;4.60;98.10
1880;DHT22;49285;49.002;8.390;2023-02-26T03:04:39;4.60;98.10
1880;DHT22;49285;49.002;8.390;2023-02-26T03:07:05;4.60;98.00
1880;DHT22;49285;49.002;8.390;2023-02-26T03:09:31;4.60;98.10
1880;DHT22;49285;49.002;8.390;2023-02-26T03:11:57;4.60;98.10
1880;DHT22;49285;49.002;8.390;2023-02-26T03:14:23;4.60;98.10
1880;DHT22;49285;49.002;8.390;2023-02-26T03:25:34;4.50;98.00
1880;DHT22;49285;49.002;8.390;2023-02-26T03:30:44;4.50;98.10
1880;DHT22;49285;49.002;8.390;2023-02-26T03:33:19;4.40;98.30
1880;DHT22;49285;49.002;8.390;2023-02-26T03:35:48;4.40;98.10
1880;DHT22;49285;49.002;8.390;2023-02-26T03:41:03;4.40;98.20
1880;DHT22;49285;49.002;8.390;2023-02-26T03:43:44;4.40;98.20
1880;DHT22;49285;49.002;8.390;2023-02-26T03:46:15;4.30;98.30
1880;DHT22;49285;49.002;8.390;2023-02-26T03:48:42;4.30;98.40
1880;DHT22;49285;49.002;8.390;2023-02-26T03:51:10;4.30;98.40
1880;DHT22;49285;49.002;8.390;2023-02-26T03:53:53;4.30;98.50
1880;DHT22;49285;49.002;8.390;2023-02-26T03:56:27;4.30;98.40
1880;DHT22;49285;49.002;8.390;2023-02-26T03:58:54;4.30;98.40
1880;DHT22;49285;49.002;8.390;2023-02-26T04:01:27;4.20;98.50
1880;DHT22;49285;49.002;8.390;2023-02-26T04:04:00;4.20;98.50
1880;DHT22;49285;49.002;8.390;2023-02-26T04:06:27;4.20;98.70
1880;DHT22;49285;49.002;8.390;2023-02-26T04:08:53;4.20;98.60
1880;DHT22;49285;49.002;8.390;2023-02-26T04:11:20;4.20;98.70
1880;DHT22;49285;49.002;8.390;2023-02-26T04:13:47;4.20;98.70
1880;DHT22;49285;49.002;8.390;2023-02-26T04:16:13;4.10;98.80
1880;DHT22;49285;49.002;8.390;2023-02-26T04:18:39;4.10;99.00
1880;DHT22;49285;49.002;8.390;2023-02-26T04:21:05;4.10;98.90
1880;DHT22;49285;49.002;8.390;2023-02-26T04:23:31;4.10;98.90
1880;DHT22;49285;49.002;8.390;2023-02-26T04:25:57;4.10;99.00
1880;DHT22;49285;49.002;8.390;2023-02-26T04:28:22;4.00;99.00
1880;DHT22;49285;49.002;8.390;2023-02-26T04:30:48;4.00;99.10
1880;DHT22;49285;49.002;8.390;2023-02-26T04:33:14;4.00;99.10
1880;DHT22;49285;49.002;8.390;2023-02-26T04:35:40;4.00;99.20
1880;DHT22;49285;49.002;8.390;2023-02-26T04:38:06;4.00;99.10
1880;DHT22;49285;49.002;8.390;2023-02-26T04:40:32;3.90;99.30
1880;DHT22;49285;49.002;8.390;2023-02-26T04:42:57;3.90;99.40
1880;DHT22;49285;49.002;8.390;2023-02-26T04:45:23;3.90;99.40
1880;DHT22;49285;49.002;8.390;2023-02-26T04:47:48;3.90;99.40
1880;DHT22;49285;49.002;8.390;2023-02-26T04:50:14;3.90;99.50
1880;DHT22;49285;49.002;8.390;2023-02-26T04:52:40;3.90;99.60
1880;DHT22;49285;49.002;8.390;2023-02-26T04:55:06;3.90;99.60
1880;DHT22;49285;49.002;8.390;2023-02-26T04:57:32;3.90;99.70
1880;DHT22;49285;49.002;8.390;2023-02-26T04:59:57;3.90;99.80
1880;DHT22;49285;49.002;8.390;2023-02-26T05:02:23;3.80;99.70
1880;DHT22;49285;49.002;8.390;2023-02-26T05:04:49;3.80;99.70
1880;DHT22;49285;49.002;8.390;2023-02-26T05:07:14;3.80;99.80
1880;DHT22;49285;49.002;8.390;2023-02-26T05:09:40;3.80;99.80
1880;DHT22;49285;49.002;8.390;2023-02-26T05:12:05;3.80;99.90
1880;DHT22;49285;49.002;8.390;2023-02-26T05:14:31;3.80;99.90
1880;DHT22;49285;49.002;8.390;2023-02-26T05:16:56;3.80;99.90
1880;DHT22;49285;49.002;8.390;2023-02-26T05:19:22;3.70;99.90
1880;DHT22;49285;49.002;8.390;2023-02-26T05:21:48;3.70;99.90
1880;DHT22;49285;49.002;8.390;2023-02-26T05:24:15;3.70;99.90
1880;DHT22;49285;49.002;8.390;2023-02-26T05:26:40;3.70;99.90
1880;DHT22;49285;49.002;8.390;2023-02-26T05:29:06;3.70;99.90
1880;DHT22;49285;49.002;8.390;2023-02-26T05:31:31;3.70;99.90
1880;DHT22;49285;49.002;8.390;2023-02-26T05:33:57;3.70;99.90
1880;DHT22;49285;49.002;8.390;2023-02-26T05:36:23;3.70;99.90
1880;DHT22;49285;49.002;8.390;2023-02-26T05:38:48;3.70;99.90
1880;DHT22;49285;49.002;8.390;2023-02-26T05:41:14;3.70;99.90
1880;DHT22;49285;49.002;8.390;2023-02-26T05:43:39;3.60;99.90
1880;DHT22;49285;49.002;8.390;2023-02-26T05:46:06;3.60;99.90
1880;DHT22;49285;49.002;8.390;2023-02-26T05:48:32;3.60;99.90
1880;DHT22;49285;49.002;8.390;2023-02-26T05:50:57;3.60;99.90
1880;DHT22;49285;49.002;8.390;2023-02-26T05:53:23;3.60;99.90
1880;DHT22;49285;49.002;8.390;2023-02-26T05:55:49;3.60;99.90
1880;DHT22;49285;49.002;8.390;2023-02-26T05:58:14;3.60;99.90
1880;DHT22;49285;49.002;8.390;2023-02-26T06:00:40;3.50;99.90
1880;DHT22;49285;49.002;8.390;2023-02-26T06:03:06;3.50;99.90
1880;DHT22;49285;49.002;8.390;2023-02-26T06:05:32;3.50;99.90
1880;DHT22;49285;49.002;8.390;2023-02-26T06:07:58;3.50;99.90
1880;DHT22;49285;49.002;8.390;2023-02-26T06:10:23;3.40;99.90
1880;DHT22;49285;49.002;8.390;2023-02-26T06:12:49;3.40;99.90
1880;DHT22;49285;49.002;8.390;2023-02-26T06:15:14;3.40;99.90
1880;DHT22;49285;49.002;8.390;2023-02-26T06:17:40;3.40;99.90
1880;DHT22;49285;49.002;8.390;2023-02-26T06:20:06;3.40;99.90
1880;DHT22;49285;49.002;8.390;2023-02-26T06:22:31;3.40;99.90
1880;DHT22;49285;49.002;8.390;2023-02-26T06:24:57;3.50;99.90
1880;DHT22;49285;49.002;8.390;2023-02-26T06:27:23;3.50;99.90
1880;DHT22;49285;49.002;8.390;2023-02-26T06:29:49;3.40;99.90
1880;DHT22;49285;49.002;8.390;2023-02-26T06:32:15;3.50;99.90
1880;DHT22;49285;49.002;8.390;2023-02-26T06:34:40;3.40;99.90
1880;DHT22;49285;49.002;8.390;2023-02-26T06:37:06;3.50;99.90
1880;DHT22;49285;49.002;8.390;2023-02-26T06:39:31;3.50;99.90
1880;DHT22;49285;49.002;8.390;2023-02-26T06:41:57;3.40;99.90
1880;DHT22;49285;49.002;8.390;2023-02-26T06:44:23;3.40;99.90
1880;DHT22;49285;49.002;8.390;2023-02-26T06:46:48;3.50;99.90
1880;DHT22;49285;49.002;8.390;2023-02-26T06:49:14;3.50;99.90
1880;DHT22;49285;49.002;8.390;2023-02-26T06:51:39;3.50;99.90
1880;DHT22;49285;49.002;8.390;2023-02-26T06:54:05;3.50;99.90
1880;DHT22;49285;49.002;8.390;2023-02-26T06:56:31;3.50;99.90
1880;DHT22;49285;49.002;8.390;2023-02-26T06:58:56;3.50;99.90
1880;DHT22;49285;49.002;8.390;2023-02-26T07:01:22;3.40;99.90
1880;DHT22;49285;49.002;8.390;2023-02-26T07:03:48;3.40;99.90
1880;DHT22;49285;49.002;8.390;2023-02-26T07:06:14;3.40;99.90
1880;DHT22;49285;49.002;8.390;2023-02-26T07:08:40;3.40;99.90
1880;DHT22;49285;49.002;8.390;2023-02-26T07:11:05;3.50;99.90
1880;DHT22;49285;49.002;8.390;2023-02-26T07:13:33;3.50;99.90
1880;DHT22;49285;49.002;8.390;2023-02-26T07:15:58;3.50;99.90
1880;DHT22;49285;49.002;8.390;2023-02-26T07:18:24;3.60;99.90
1880;DHT22;49285;49.002;8.390;2023-02-26T07:20:49;3.60;99.90
1880;DHT22;49285;49.002;8.390;2023-02-26T07:23:15;3.50;99.90
1880;DHT22;49285;49.002;8.390;2023-02-26T07:25:41;3.60;99.90
1880;DHT22;49285;49.002;8.390;2023-02-26T07:28:06;3.60;99.90
1880;DHT22;49285;49.002;8.390;2023-02-26T07:30:32;3.60;99.90
1880;DHT22;49285;49.002;8.390;2023-02-26T07:32:58;3.60;99.90
1880;DHT22;49285;49.002;8.390;2023-02-26T07:35:24;3.60;99.90
1880;DHT22;49285;49.002;8.390;2023-02-26T07:37:50;3.60;99.90
1880;DHT22;49285;49.002;8.390;2023-02-26T07:40:17;3.60;99.90
1880;DHT22;49285;49.002;8.390;2023-02-26T07:42:43;3.70;99.90
1880;DHT22;49285;49.002;8.390;2023-02-26T07:45:09;3.70;99.90
1880;DHT22;49285;49.002;8.390;2023-02-26T07:47:35;3.80;99.90
1880;DHT22;49285;49.002;8.390;2023-02-26T07:50:00;3.80;99.90
1880;DHT22;49285;49.002;8.390;2023-02-26T07:52:26;3.80;99.90
1880;DHT22;49285;49.002;8.390;2023-02-26T07:54:51;3.80;99.90
1880;DHT22;49285;49.002;8.390;2023-02-26T07:57:17;3.90;99.90
1880;DHT22;49285;49.002;8.390;2023-02-26T07:59:43;3.90;99.90
1880;DHT22;49285;49.002;8.390;2023-02-26T08:02:11;3.90;99.90
1880;DHT22;49285;49.002;8.390;2023-02-26T08:04:37;4.00;99.90
1880;DHT22;49285;49.002;8.390;2023-02-26T08:07:03;4.00;99.90
1880;DHT22;49285;49.002;8.390;2023-02-26T08:09:28;4.00;99.90
1880;DHT22;49285;49.002;8.390;2023-02-26T08:11:55;4.00;99.90
1880;DHT22;49285;49.002;8.390;2023-02-26T08:14:21;4.00;99.90
1880;DHT22;49285;49.002;8.390;2023-02-26T08:16:47;4.00;99.90
1880;DHT22;49285;49.002;8.390;2023-02-26T08:19:13;4.00;99.90
1880;DHT22;49285;49.002;8.390;2023-02-26T08:21:38;4.10;99.90
1880;DHT22;49285;49.002;8.390;2023-02-26T08:24:04;4.20;99.90
1880;DHT22;49285;49.002;8.390;2023-02-26T08:26:30;4.20;99.90
1880;DHT22;49285;49.002;8.390;2023-02-26T08:28:55;4.20;99.90
1880;DHT22;49285;49.002;8.390;2023-02-26T08:31:21;4.30;99.90
1880;DHT22;49285;49.002;8.390;2023-02-26T08:33:46;4.30;99.90
1880;DHT22;49285;49.002;8.390;2023-02-26T08:36:12;4.20;99.90
1880;DHT22;49285;49.002;8.390;2023-02-26T08:38:39;4.30;99.90
1880;DHT22;49285;49.002;8.390;2023-02-26T08:41:04;4.40;99.90
1880;DHT22;49285;49.002;8.390;2023-02-26T08:43:30;4.40;99.90
1880;DHT22;49285;49.002;8.390;2023-02-26T08:45:56;4.50;99.90
1880;DHT22;49285;49.002;8.390;2023-02-26T08:48:23;4.60;99.90
1880;DHT22;49285;49.002;8.390;2023-02-26T08:50:49;4.50;99.90
1880;DHT22;49285;49.002;8.390;2023-02-26T08:53:15;4.60;99.90
1880;DHT22;49285;49.002;8.390;2023-02-26T08:55:40;4.50;99.90
1880;DHT22;49285;49.002;8.390;2023-02-26T08:58:06;4.60;99.90
1880;DHT22;49285;49.002;8.390;2023-02-26T09:00:32;4.60;99.90
1880;DHT22;49285;49.002;8.390;2023-02-26T09:02:58;4.70;99.90
1880;DHT22;49285;49.002;8.390;2023-02-26T09:05:24;4.70;99.90
1880;DHT22;49285;49.002;8.390;2023-02-26T09:07:50;4.70;99.90
1880;DHT22;49285;49.002;8.390;2023-02-26T09:10:16;4.70;99.90
1880;DHT22;49285;49.002;8.390;2023-02-26T09:12:42;4.70;99.90
1880;DHT22;49285;49.002;8.390;2023-02-26T09:15:09;4.60;99.90
1880;DHT22;49285;49.002;8.390;2023-02-26T09:17:35;4.70;99.90
1880;DHT22;49285;49.002;8.390;2023-02-26T09:20:02;4.70;99.90
1880;DHT22;49285;49.002;8.390;2023-02-26T09:22:28;4.70;99.90
1880;DHT22;49285;49.002;8.390;2023-02-26T09:24:54;4.80;99.90
1880;DHT22;49285;49.002;8.390;2023-02-26T09:27:20;4.80;99.90
1880;DHT22;49285;49.002;8.390;2023-02-26T09:29:46;4.80;99.90
1880;DHT22;49285;49.002;8.390;2023-02-26T09:32:11;4.80;99.90
1880;DHT22;49285;49.002;8.390;2023-02-26T09:34:37;4.90;99.90
1880;DHT22;49285;49.002;8.390;2023-02-26T09:37:08;4.90;99.90
1880;DHT22;49285;49.002;8.390;2023-02-26T09:39:34;5.00;99.90
1880;DHT22;49285;49.002;8.390;2023-02-26T09:44:40;5.00;99.90
1880;DHT22;49285;49.002;8.390;2023-02-26T09:47:16;5.00;99.90
1880;DHT22;49285;49.002;8.390;2023-02-26T09:54:46;5.10;99.90
1880;DHT22;49285;49.002;8.390;2023-02-26T09:57:22;5.20;99.90
1880;DHT22;49285;49.002;8.390;2023-02-26T09:59:48;5.20;99.90
1880;DHT22;49285;49.002;8.390;2023-02-26T10:02:28;5.10;99.90
1880;DHT22;49285;49.002;8.390;2023-02-26T10:08:07;5.10;99.90
1880;DHT22;49285;49.002;8.390;2023-02-26T10:10:48;5.20;99.90
1880;DHT22;49285;49.002;8.390;2023-02-26T10:13:42;5.20;99.90
1880;DHT22;49285;49.002;8.390;2023-02-26T10:16:16;5.20;99.90
1880;DHT22;49285;49.002;8.390;2023-02-26T10:18:50;5.20;99.90
1880;DHT22;49285;49.002;8.390;2023-02-26T10:24:02;5.20;99.90
1880;DHT22;49285;49.002;8.390;2023-02-26T10:26:43;5.20;99.90
1880;DHT22;49285;49.002;8.390;2023-02-26T10:29:35;5.20;99.90
1880;DHT22;49285;49.002;8.390;2023-02-26T10:34:51;5.00;99.90
1880;DHT22;49285;49.002;8.390;2023-02-26T10:37:55;5.00;99.90
1880;DHT22;49285;49.002;8.390;2023-02-26T10:43:33;5.10;99.90
1880;DHT22;49285;49.002;8.390;2023-02-26T10:46:23;5.10;99.90
1880;DHT22;49285;49.002;8.390;2023-02-26T10:51:44;5.30;99.90
1880;DHT22;49285;49.002;8.390;2023-02-26T10:56:42;5.20;99.90
1880;DHT22;49285;49.002;8.390;2023-02-26T10:59:08;5.20;99.90
1880;DHT22;49285;49.002;8.390;2023-02-26T11:01:35;5.20;99.90
1880;DHT22;49285;49.002;8.390;2023-02-26T11:04:07;5.30;99.90
1880;DHT22;49285;49.002;8.390;2023-02-26T11:06:40;5.30;99.90
1880;DHT22;49285;49.002;8.390;2023-02-26T11:14:32;5.20;99.90
1880;DHT22;49285;49.002;8.390;2023-02-26T11:17:01;5.30;99.90
1880;DHT22;49285;49.002;8.390;2023-02-26T11:19:41;5.30;99.90
1880;DHT22;49285;49.002;8.390;2023-02-26T11:22:12;5.30;99.90
1880;DHT22;49285;49.002;8.390;2023-02-26T11:24:45;5.40;99.90
1880;DHT22;49285;49.002;8.390;2023-02-26T11:27:17;5.50;99.90
1880;DHT22;49285;49.002;8.390;2023-02-26T11:29:47;5.60;99.90
1880;DHT22;49285;49.002;8.390;2023-02-26T11:32:18;5.50;99.30
1880;DHT22;49285;49.002;8.390;2023-02-26T11:34:49;5.50;99.40
1880;DHT22;49285;49.002;8.390;2023-02-26T11:37:30;5.60;99.40
1880;DHT22;49285;49.002;8.390;2023-02-26T11:39:58;5.50;99.60
1880;DHT22;49285;49.002;8.390;2023-02-26T11:42:25;5.60;99.80
1880;DHT22;49285;49.002;8.390;2023-02-26T11:44:51;5.60;99.90
1880;DHT22;49285;49.002;8.390;2023-02-26T11:47:21;5.60;99.80
1880;DHT22;49285;49.002;8.390;2023-02-26T11:49:53;5.60;99.80
1880;DHT22;49285;49.002;8.390;2023-02-26T11:52:28;5.50;99.90
1880;DHT22;49285;49.002;8.390;2023-02-26T11:55:01;5.60;99.90
1880;DHT22;49285;49.002;8.390;2023-02-26T11:57:29;5.50;99.90
1880;DHT22;49285;49.002;8.390;2023-02-26T11:59:58;5.60;99.90
1880;DHT22;49285;49.002;8.390;2023-02-26T12:02:26;5.50;99.90
1880;DHT22;49285;49.002;8.390;2023-02-26T12:04:59;5.60;99.90
1880;DHT22;49285;49.002;8.390;2023-02-26T12:07:26;5.70;99.90
1880;DHT22;49285;49.002;8.390;2023-02-26T12:09:52;5.70;99.90
1880;DHT22;49285;49.002;8.390;2023-02-26T12:12:49;5.70;99.90
1880;DHT22;49285;49.002;8.390;2023-02-26T12:15:30;5.70;99.90
1880;DHT22;49285;49.002;8.390;2023-02-26T12:32:34;5.80;99.60
1880;DHT22;49285;49.002;8.390;2023-02-26T12:35:30;5.80;99.50
1880;DHT22;49285;49.002;8.390;2023-02-26T12:38:09;6.00;99.40
1880;DHT22;49285;49.002;8.390;2023-02-26T12:43:48;5.90;99.30
1880;DHT22;49285;49.002;8.390;2023-02-26T12:46:54;5.90;99.30
1880;DHT22;49285;49.002;8.390;2023-02-26T13:00:56;6.00;99.20
1880;DHT22;49285;49.002;8.390;2023-02-26T13:14:01;5.90;99.80
1880;DHT22;49285;49.002;8.390;2023-02-26T13:16:52;5.90;99.90
1880;DHT22;49285;49.002;8.390;2023-02-26T13:19:27;5.90;99.90
1880;DHT22;49285;49.002;8.390;2023-02-26T13:22:02;5.90;99.90
1880;DHT22;49285;49.002;8.390;2023-02-26T13:24:37;5.90;99.90
1880;DHT22;49285;49.002;8.390;2023-02-26T13:27:04;5.90;99.90
1880;DHT22;49285;49.002;8.390;2023-02-26T13:29:35;6.00;99.90
1880;DHT22;49285;49.002;8.390;2023-02-26T13:32:09;6.10;99.90
1880;DHT22;49285;49.002;8.390;2023-02-26T13:34:43;6.10;99.20
1880;DHT22;49285;49.002;8.390;2023-02-26T13:37:31;6.10;99.00
1880;DHT22;49285;49.002;8.390;2023-02-26T13:40:33;6.10;98.60
1880;DHT22;49285;49.002;8.390;2023-02-26T13:46:22;6.20;98.30
1880;DHT22;49285;49.002;8.390;2023-02-26T13:51:37;6.20;97.80
1880;DHT22;49285;49.002;8.390;2023-02-26T14:01:55;6.20;97.20
1880;DHT22;49285;49.002;8.390;2023-02-26T14:04:24;6.10;96.60
1880;DHT22;49285;49.002;8.390;2023-02-26T14:06:59;6.20;96.60
1880;DHT22;49285;49.002;8.390;2023-02-26T14:09:29;6.30;96.70
1880;DHT22;49285;49.002;8.390;2023-02-26T14:12:21;6.40;96.10
1880;DHT22;49285;49.002;8.390;2023-02-26T14:20:14;6.40;94.90
1880;DHT22;49285;49.002;8.390;2023-02-26T14:22:41;6.40;95.30
1880;DHT22;49285;49.002;8.390;2023-02-26T14:28:19;6.40;95.20
1880;DHT22;49285;49.002;8.390;2023-02-26T14:30:51;6.40;94.90
1880;DHT22;49285;49.002;8.390;2023-02-26T14:33:19;6.40;95.00
1880;DHT22;49285;49.002;8.390;2023-02-26T14:35:51;6.50;94.70
1880;DHT22;49285;49.002;8.390;2023-02-26T14:38:40;6.50;94.60
1880;DHT22;49285;49.002;8.390;2023-02-26T14:41:27;6.50;94.70
1880;DHT22;49285;49.002;8.390;2023-02-26T14:44:24;6.60;94.10
1880;DHT22;49285;49.002;8.390;2023-02-26T14:46:52;6.60;93.80
1880;DHT22;49285;49.002;8.390;2023-02-26T14:49:24;6.50;93.70
1880;DHT22;49285;49.002;8.390;2023-02-26T15:00:49;6.50;93.60
1880;DHT22;49285;49.002;8.390;2023-02-26T15:08:57;6.50;93.40
1880;DHT22;49285;49.002;8.390;2023-02-26T15:14:19;6.50;93.10
1880;DHT22;49285;49.002;8.390;2023-02-26T15:16:51;6.50;92.90
1880;DHT22;49285;49.002;8.390;2023-02-26T15:19:36;6.50;93.20
1880;DHT22;49285;49.002;8.390;2023-02-26T15:22:18;6.50;93.50
1880;DHT22;49285;49.002;8.390;2023-02-26T15:24:46;6.50;93.40
1880;DHT22;49285;49.002;8.390;2023-02-26T15:27:15;6.50;93.40
1880;DHT22;49285;49.002;8.390;2023-02-26T15:29:42;6.50;93.50
1880;DHT22;49285;49.002;8.390;2023-02-26T15:32:21;6.40;93.70
1880;DHT22;49285;49.002;8.390;2023-02-26T15:34:56;6.40;93.80
1880;DHT22;49285;49.002;8.390;2023-02-26T15:37:24;6.40;93.50
1880;DHT22;49285;49.002;8.390;2023-02-26T15:39:51;6.40;93.00
1880;DHT22;49285;49.002;8.390;2023-02-26T15:42:18;6.40;92.60
1880;DHT22;49285;49.002;8.390;2023-02-26T15:44:46;6.40;92.40
1880;DHT22;49285;49.002;8.390;2023-02-26T15:47:15;6.30;92.30
1880;DHT22;49285;49.002;8.390;2023-02-26T15:49:45;6.40;92.50
1880;DHT22;49285;49.002;8.390;2023-02-26T15:52:15;6.40;92.40
1880;DHT22;49285;49.002;8.390;2023-02-26T15:54:48;6.40;92.50
1880;DHT22;49285;49.002;8.390;2023-02-26T15:57:15;6.40;92.60
1880;DHT22;49285;49.002;8.390;2023-02-26T15:59:47;6.40;92.80
1880;DHT22;49285;49.002;8.390;2023-02-26T16:02:20;6.40;92.80
1880;DHT22;49285;49.002;8.390;2023-02-26T16:04:46;6.50;92.90
1880;DHT22;49285;49.002;8.390;2023-02-26T16:07:12;6.50;91.60
1880;DHT22;49285;49.002;8.390;2023-02-26T16:09:48;6.40;91.70
1880;DHT22;49285;49.002;8.390;2023-02-26T16:12:32;6.40;91.30
1880;DHT22;49285;49.002;8.390;2023-02-26T16:15:02;6.40;91.30
1880;DHT22;49285;49.002;8.390;2023-02-26T16:17:33;6.30;91.10
1880;DHT22;49285;49.002;8.390;2023-02-26T16:20:03;6.30;91.20
1880;DHT22;49285;49.002;8.390;2023-02-26T16:22:36;6.20;91.10
1880;DHT22;49285;49.002;8.390;2023-02-26T16:25:13;6.20;91.10
1880;DHT22;49285;49.002;8.390;2023-02-26T16:27:42;6.20;91.40
1880;DHT22;49285;49.002;8.390;2023-02-26T16:30:17;6.10;91.60
1880;DHT22;49285;49.002;8.390;2023-02-26T16:32:43;6.10;91.50
1880;DHT22;49285;49.002;8.390;2023-02-26T16:35:15;6.10;91.60
1880;DHT22;49285;49.002;8.390;2023-02-26T16:37:44;6.10;91.60
1880;DHT22;49285;49.002;8.390;2023-02-26T16:48:26;6.00;88.50
1880;DHT22;49285;49.002;8.390;2023-02-26T16:50:58;6.00;87.80
1880;DHT22;49285;49.002;8.390;2023-02-26T16:53:34;6.00;87.70
1880;DHT22;49285;49.002;8.390;2023-02-26T16:56:01;5.90;88.10
1880;DHT22;49285;49.002;8.390;2023-02-26T16:58:29;5.90;87.70
1880;DHT22;49285;49.002;8.390;2023-02-26T17:01:17;5.90;87.60
1880;DHT22;49285;49.002;8.390;2023-02-26T17:03:49;5.80;87.70
1880;DHT22;49285;49.002;8.390;2023-02-26T17:06:21;5.80;88.00
1880;DHT22;49285;49.002;8.390;2023-02-26T17:08:55;5.80;88.30
1880;DHT22;49285;49.002;8.390;2023-02-26T17:11:32;5.80;88.40
1880;DHT22;49285;49.002;8.390;2023-02-26T17:14:21;5.80;88.90
1880;DHT22;49285;49.002;8.390;2023-02-26T17:16:49;5.70;89.00
1880;DHT22;49285;49.002;8.390;2023-02-26T17:19:15;5.80;89.20
1880;DHT22;49285;49.002;8.390;2023-02-26T17:21:53;5.70;89.30
1880;DHT22;49285;49.002;8.390;2023-02-26T17:24:36;5.80;89.60
1880;DHT22;49285;49.002;8.390;2023-02-26T17:27:05;5.70;88.90
1880;DHT22;49285;49.002;8.390;2023-02-26T17:29:43;5.70;88.70
1880;DHT22;49285;49.002;8.390;2023-02-26T17:32:27;5.80;88.30
1880;DHT22;49285;49.002;8.390;2023-02-26T17:34:55;5.80;88.10
1880;DHT22;49285;49.002;8.390;2023-02-26T17:37:22;5.70;87.90
1880;DHT22;49285;49.002;8.390;2023-02-26T17:39:49;5.70;88.20
1880;DHT22;49285;49.002;8.390;2023-02-26T17:42:17;5.70;88.30
1880;DHT22;49285;49.002;8.390;2023-02-26T17:44:48;5.70;88.40
1880;DHT22;49285;49.002;8.390;2023-02-26T17:47:19;5.70;88.60
1880;DHT22;49285;49.002;8.390;2023-02-26T17:49:46;5.70;88.80
1880;DHT22;49285;49.002;8.390;2023-02-26T17:52:12;5.70;88.80
1880;DHT22;49285;49.002;8.390;2023-02-26T17:54:38;5.70;89.10
1880;DHT22;49285;49.002;8.390;2023-02-26T17:57:05;5.70;88.80
1880;DHT22;49285;49.002;8.390;2023-02-26T17:59:31;5.60;89.30
1880;DHT22;49285;49.002;8.390;2023-02-26T18:01:58;5.70;89.30
1880;DHT22;49285;49.002;8.390;2023-02-26T18:04:23;5.60;89.40
1880;DHT22;49285;49.002;8.390;2023-02-26T18:06:49;5.70;89.60
1880;DHT22;49285;49.002;8.390;2023-02-26T18:09:15;5.70;89.50
1880;DHT22;49285;49.002;8.390;2023-02-26T18:11:41;5.60;89.00
1880;DHT22;49285;49.002;8.390;2023-02-26T18:14:08;5.60;88.90
1880;DHT22;49285;49.002;8.390;2023-02-26T18:16:37;5.60;88.80
1880;DHT22;49285;49.002;8.390;2023-02-26T18:19:04;5.60;88.40
1880;DHT22;49285;49.002;8.390;2023-02-26T18:21:30;5.50;88.20
1880;DHT22;49285;49.002;8.390;2023-02-26T18:23:56;5.60;86.30
1880;DHT22;49285;49.002;8.390;2023-02-26T18:26:23;5.50;85.90
1880;DHT22;49285;49.002;8.390;2023-02-26T18:28:52;5.50;86.10
1880;DHT22;49285;49.002;8.390;2023-02-26T18:31:20;5.40;85.60
1880;DHT22;49285;49.002;8.390;2023-02-26T18:33:45;5.40;85.60
1880;DHT22;49285;49.002;8.390;2023-02-26T18:36:23;5.40;85.90
1880;DHT22;49285;49.002;8.390;2023-02-26T18:38:54;5.40;86.30
1880;DHT22;49285;49.002;8.390;2023-02-26T18:41:22;5.40;86.20
1880;DHT22;49285;49.002;8.390;2023-02-26T18:43:48;5.40;86.00
1880;DHT22;49285;49.002;8.390;2023-02-26T18:46:13;5.40;85.80
1880;DHT22;49285;49.002;8.390;2023-02-26T18:48:39;5.40;85.80
1880;DHT22;49285;49.002;8.390;2023-02-26T18:51:04;5.40;86.10
1880;DHT22;49285;49.002;8.390;2023-02-26T18:53:31;5.40;86.00
1880;DHT22;49285;49.002;8.390;2023-02-26T18:55:58;5.30;85.40
1880;DHT22;49285;49.002;8.390;2023-02-26T18:58:24;5.30;85.50
1880;DHT22;49285;49.002;8.390;2023-02-26T19:00:50;5.30;85.40
1880;DHT22;49285;49.002;8.390;2023-02-26T19:03:16;5.30;85.90